createdAt,value
2018-05-07T00:00:02.630Z,0.00
2018-05-07T00:01:13.056Z,0.00
2018-05-07T00:02:02.547Z,0.00
2018-05-07T00:03:02.506Z,0.00
2018-05-07T00:04:02.496Z,0.00
2018-05-07T00:05:02.436Z,0.00
2018-05-07T00:06:02.409Z,0.00
2018-05-07T00:07:02.395Z,0.00
2018-05-07T00:08:02.315Z,0.00
2018-05-07T00:09:02.298Z,0.00
2018-05-07T00:10:02.242Z,0.00
2018-05-07T00:11:02.196Z,0.00
2018-05-07T00:12:02.161Z,0.00
2018-05-07T00:13:02.116Z,0.00
2018-05-07T00:14:02.072Z,0.00
2018-05-07T00:15:02.065Z,0.00
2018-05-07T00:16:02.021Z,0.00
2018-05-07T00:17:01.968Z,0.00
2018-05-07T00:18:01.931Z,0.00
2018-05-07T00:19:01.910Z,0.00
2018-05-07T00:20:01.872Z,0.00
2018-05-07T00:21:01.802Z,0.00
2018-05-07T00:22:01.763Z,0.00
2018-05-07T00:23:01.735Z,0.00
2018-05-07T00:24:01.694Z,0.00
2018-05-07T00:25:01.737Z,0.00
2018-05-07T00:26:01.606Z,0.00
2018-05-07T00:27:01.574Z,0.00
2018-05-07T00:28:01.539Z,0.00
2018-05-07T00:29:01.502Z,0.00
2018-05-07T00:30:01.490Z,0.00
2018-05-07T00:31:01.440Z,0.00
2018-05-07T00:32:01.380Z,0.00
2018-05-07T00:33:01.332Z,0.00
2018-05-07T00:34:01.297Z,0.00
2018-05-07T00:35:01.297Z,0.00
2018-05-07T00:36:01.248Z,0.00
2018-05-07T00:37:01.191Z,0.00
2018-05-07T00:38:01.148Z,0.00
2018-05-07T00:39:01.109Z,0.00
2018-05-07T00:40:01.073Z,0.00
2018-05-07T00:41:01.052Z,0.00
2018-05-07T00:42:00.997Z,0.00
2018-05-07T00:43:00.950Z,0.00
2018-05-07T00:44:00.907Z,0.00
2018-05-07T00:45:00.866Z,0.00
2018-05-07T00:46:00.829Z,0.00
2018-05-07T00:47:00.812Z,0.00
2018-05-07T00:48:00.752Z,0.00
2018-05-07T00:49:00.719Z,0.00
2018-05-07T00:50:00.683Z,0.00
2018-05-07T00:51:00.646Z,0.00
2018-05-07T00:52:00.632Z,0.00
2018-05-07T00:53:00.556Z,0.00
2018-05-07T00:54:00.515Z,0.00
2018-05-07T00:55:00.478Z,0.00
2018-05-07T00:56:00.442Z,0.00
2018-05-07T00:57:00.408Z,0.00
2018-05-07T00:58:00.378Z,0.00
2018-05-07T00:59:00.315Z,0.00
2018-05-07T01:00:00.283Z,0.00
2018-05-07T01:01:00.250Z,0.00
2018-05-07T01:02:00.208Z,0.00
2018-05-07T01:03:00.189Z,0.00
2018-05-07T01:04:00.127Z,0.00
2018-05-07T01:05:00.089Z,0.00
2018-05-07T01:06:00.040Z,0.00
2018-05-07T01:07:00.007Z,0.00
2018-05-07T01:07:59.996Z,0.00
2018-05-07T01:08:59.930Z,0.00
2018-05-07T01:09:59.899Z,0.00
2018-05-07T01:10:59.849Z,0.00
2018-05-07T01:11:59.807Z,0.00
2018-05-07T01:12:59.761Z,0.00
2018-05-07T01:13:59.763Z,0.00
2018-05-07T01:14:59.695Z,0.00
2018-05-07T01:15:59.652Z,0.00
2018-05-07T01:16:59.610Z,0.00
2018-05-07T01:17:59.571Z,0.00
2018-05-07T01:18:59.557Z,0.00
2018-05-07T01:19:59.506Z,0.00
2018-05-07T01:20:59.464Z,0.00
2018-05-07T01:21:59.417Z,0.00
2018-05-07T01:22:59.376Z,0.00
2018-05-07T01:23:59.359Z,0.00
2018-05-07T01:24:59.295Z,0.00
2018-05-07T01:25:59.260Z,0.00
2018-05-07T01:26:59.220Z,0.00
2018-05-07T01:27:59.178Z,0.00
2018-05-07T01:28:59.167Z,0.00
2018-05-07T01:29:59.093Z,0.00
2018-05-07T01:30:59.057Z,0.00
2018-05-07T01:31:59.020Z,0.00
2018-05-07T01:32:58.987Z,0.00
2018-05-07T01:33:58.968Z,0.00
2018-05-07T01:34:58.903Z,0.00
2018-05-07T01:35:58.867Z,0.00
2018-05-07T01:36:58.814Z,0.00
2018-05-07T01:37:58.777Z,0.00
2018-05-07T01:38:58.767Z,0.00
2018-05-07T01:39:58.707Z,0.00
2018-05-07T01:40:58.670Z,0.00
2018-05-07T01:41:58.630Z,0.00
2018-05-07T01:42:58.585Z,0.00
2018-05-07T01:43:58.546Z,0.00
2018-05-07T01:44:58.533Z,0.00
2018-05-07T01:45:58.469Z,0.00
2018-05-07T01:46:58.436Z,0.00
2018-05-07T01:47:58.384Z,0.00
2018-05-07T01:48:58.344Z,0.00
2018-05-07T01:49:58.327Z,0.00
2018-05-07T01:50:58.273Z,0.00
2018-05-07T01:51:58.235Z,0.00
2018-05-07T01:52:58.197Z,0.00
2018-05-07T01:53:58.151Z,0.00
2018-05-07T01:54:58.148Z,0.00
2018-05-07T01:55:58.062Z,0.00
2018-05-07T01:56:58.024Z,0.00
2018-05-07T01:57:57.986Z,0.00
2018-05-07T01:58:57.949Z,0.00
2018-05-07T01:59:57.919Z,0.00
2018-05-07T02:00:57.893Z,0.00
2018-05-07T02:01:57.831Z,0.00
2018-05-07T02:02:57.791Z,0.00
2018-05-07T02:03:57.760Z,0.00
2018-05-07T02:04:57.714Z,0.00
2018-05-07T02:05:57.697Z,0.00
2018-05-07T02:06:57.637Z,0.00
2018-05-07T02:07:57.585Z,0.00
2018-05-07T02:08:57.550Z,0.00
2018-05-07T02:09:57.520Z,0.00
2018-05-07T02:10:57.490Z,0.00
2018-05-07T02:11:57.455Z,0.00
2018-05-07T02:12:57.394Z,0.00
2018-05-07T02:13:57.359Z,0.00
2018-05-07T02:14:57.321Z,0.00
2018-05-07T02:15:57.299Z,0.00
2018-05-07T02:16:57.232Z,0.00
2018-05-07T02:17:57.193Z,0.00
2018-05-07T02:18:57.160Z,0.00
2018-05-07T02:19:57.112Z,0.00
2018-05-07T02:20:57.070Z,0.00
2018-05-07T02:22:07.036Z,0.00
2018-05-07T02:22:57.003Z,0.00
2018-05-07T02:23:56.955Z,0.00
2018-05-07T02:24:56.923Z,0.00
2018-05-07T02:25:56.867Z,0.00
2018-05-07T02:26:56.861Z,0.00
2018-05-07T02:27:56.804Z,0.00
2018-05-07T02:28:56.750Z,0.00
2018-05-07T02:29:56.717Z,0.00
2018-05-07T02:30:56.686Z,0.00
2018-05-07T02:31:56.633Z,0.00
2018-05-07T02:32:56.611Z,0.00
2018-05-07T02:33:56.561Z,0.00
2018-05-07T02:34:56.555Z,0.00
2018-05-07T02:35:56.471Z,0.00
2018-05-07T02:36:56.442Z,0.00
2018-05-07T02:37:56.413Z,0.00
2018-05-07T02:38:56.387Z,0.00
2018-05-07T02:39:56.314Z,0.00
2018-05-07T02:40:56.270Z,0.00
2018-05-07T02:41:56.273Z,0.00
2018-05-07T02:42:56.225Z,0.00
2018-05-07T02:43:56.159Z,0.00
2018-05-07T02:45:06.533Z,0.00
2018-05-07T02:45:56.072Z,0.00
2018-05-07T02:46:56.040Z,0.00
2018-05-07T02:47:55.989Z,0.00
2018-05-07T02:48:55.976Z,0.00
2018-05-07T02:49:55.912Z,0.00
2018-05-07T02:50:55.876Z,0.00
2018-05-07T02:51:55.839Z,0.00
2018-05-07T02:52:55.800Z,0.00
2018-05-07T02:53:55.775Z,0.00
2018-05-07T02:54:55.729Z,0.00
2018-05-07T02:55:55.665Z,0.00
2018-05-07T02:56:55.633Z,0.00
2018-05-07T02:57:55.592Z,0.00
2018-05-07T02:58:55.573Z,0.00
2018-05-07T02:59:55.518Z,0.00
2018-05-07T03:00:55.474Z,0.00
2018-05-07T03:01:55.433Z,0.00
2018-05-07T03:02:55.388Z,0.00
2018-05-07T03:03:55.383Z,0.00
2018-05-07T03:04:55.310Z,0.00
2018-05-07T03:05:55.274Z,0.00
2018-05-07T03:06:55.238Z,0.00
2018-05-07T03:07:55.199Z,0.00
2018-05-07T03:08:55.178Z,0.00
2018-05-07T03:09:55.111Z,0.00
2018-05-07T03:10:55.070Z,0.00
2018-05-07T03:11:55.043Z,0.00
2018-05-07T03:12:55.101Z,0.00
2018-05-07T03:13:54.982Z,0.00
2018-05-07T03:14:54.921Z,0.00
2018-05-07T03:15:54.864Z,0.00
2018-05-07T03:16:54.831Z,0.00
2018-05-07T03:17:54.790Z,0.00
2018-05-07T03:18:54.763Z,0.00
2018-05-07T03:19:54.731Z,0.00
2018-05-07T03:20:54.667Z,0.00
2018-05-07T03:21:54.634Z,0.00
2018-05-07T03:22:54.584Z,0.00
2018-05-07T03:23:54.557Z,0.00
2018-05-07T03:24:54.537Z,0.00
2018-05-07T03:25:54.471Z,0.00
2018-05-07T03:26:54.437Z,0.00
2018-05-07T03:27:54.385Z,0.00
2018-05-07T03:28:54.358Z,0.00
2018-05-07T03:29:54.396Z,0.00
2018-05-07T03:30:54.268Z,0.00
2018-05-07T03:31:54.241Z,0.00
2018-05-07T03:32:54.191Z,0.00
2018-05-07T03:33:54.144Z,0.00
2018-05-07T03:34:54.133Z,0.00
2018-05-07T03:35:54.080Z,0.00
2018-05-07T03:36:54.028Z,0.00
2018-05-07T03:37:53.987Z,0.00
2018-05-07T03:38:53.974Z,0.00
2018-05-07T03:39:53.929Z,0.00
2018-05-07T03:40:53.869Z,0.00
2018-05-07T03:41:53.825Z,5.63
2018-05-07T03:42:53.782Z,5.63
2018-05-07T03:43:53.753Z,5.63
2018-05-07T03:44:53.705Z,5.63
2018-05-07T03:45:53.713Z,5.63
2018-05-07T03:46:53.633Z,5.63
2018-05-07T03:47:53.582Z,5.63
2018-05-07T03:48:53.542Z,11.25
2018-05-07T03:49:53.503Z,11.25
2018-05-07T03:50:53.469Z,11.25
2018-05-07T03:51:53.442Z,11.25
2018-05-07T03:52:53.383Z,16.88
2018-05-07T03:53:53.341Z,16.88
2018-05-07T03:54:53.299Z,16.88
2018-05-07T03:55:53.269Z,16.88
2018-05-07T03:56:53.243Z,22.50
2018-05-07T03:57:53.186Z,22.50
2018-05-07T03:58:53.152Z,22.50
2018-05-07T03:59:53.098Z,22.50
2018-05-07T04:00:53.064Z,28.13
2018-05-07T04:01:53.053Z,28.13
2018-05-07T04:02:52.978Z,28.13
2018-05-07T04:03:52.945Z,33.75
2018-05-07T04:04:52.901Z,33.75
2018-05-07T04:05:52.860Z,39.38
2018-05-07T04:06:52.813Z,39.38
2018-05-07T04:07:52.817Z,39.38
2018-05-07T04:08:52.735Z,45.00
2018-05-07T04:09:52.704Z,45.00
2018-05-07T04:10:52.673Z,45.00
2018-05-07T04:11:52.637Z,50.63
2018-05-07T04:12:52.590Z,50.63
2018-05-07T04:13:52.539Z,56.25
2018-05-07T04:14:52.496Z,56.25
2018-05-07T04:15:52.462Z,56.25
2018-05-07T04:16:52.440Z,61.88
2018-05-07T04:17:52.376Z,61.88
2018-05-07T04:18:52.338Z,67.50
2018-05-07T04:19:52.291Z,67.50
2018-05-07T04:20:52.272Z,67.50
2018-05-07T04:21:52.235Z,73.13
2018-05-07T04:22:52.176Z,73.13
2018-05-07T04:23:52.125Z,78.75
2018-05-07T04:24:52.093Z,78.75
2018-05-07T04:25:52.051Z,78.75
2018-05-07T04:26:52.012Z,84.38
2018-05-07T04:27:51.998Z,84.38
2018-05-07T04:28:51.936Z,90.00
2018-05-07T04:29:51.890Z,90.00
2018-05-07T04:30:51.898Z,95.63
2018-05-07T04:31:51.805Z,95.63
2018-05-07T04:32:51.801Z,95.63
2018-05-07T04:33:51.725Z,101.25
2018-05-07T04:34:51.684Z,101.25
2018-05-07T04:35:51.662Z,106.88
2018-05-07T04:36:51.606Z,106.88
2018-05-07T04:37:51.587Z,106.88
2018-05-07T04:38:51.520Z,112.50
2018-05-07T04:39:51.497Z,112.50
2018-05-07T04:40:51.459Z,112.50
2018-05-07T04:41:51.408Z,118.13
2018-05-07T04:42:51.370Z,118.13
2018-05-07T04:43:51.358Z,123.75
2018-05-07T04:44:51.286Z,123.75
2018-05-07T04:45:51.241Z,123.75
2018-05-07T04:46:51.199Z,129.38
2018-05-07T04:47:51.176Z,129.38
2018-05-07T04:48:51.171Z,129.38
2018-05-07T04:49:51.100Z,135.00
2018-05-07T04:50:51.055Z,135.00
2018-05-07T04:51:51.004Z,140.63
2018-05-07T04:52:50.959Z,140.63
2018-05-07T04:53:50.932Z,140.63
2018-05-07T04:54:50.953Z,146.25
2018-05-07T04:55:50.840Z,185.63
2018-05-07T04:56:50.803Z,270.00
2018-05-07T04:57:50.760Z,331.88
2018-05-07T04:58:50.714Z,348.75
2018-05-07T04:59:50.725Z,354.38
2018-05-07T05:00:50.661Z,365.63
2018-05-07T05:01:51.523Z,371.25
2018-05-07T05:02:50.576Z,376.88
2018-05-07T05:03:50.518Z,382.50
2018-05-07T05:04:50.515Z,388.13
2018-05-07T05:05:50.442Z,393.75
2018-05-07T05:06:50.400Z,399.38
2018-05-07T05:07:50.414Z,410.63
2018-05-07T05:08:50.392Z,410.63
2018-05-07T05:09:50.288Z,410.63
2018-05-07T05:10:50.273Z,416.25
2018-05-07T05:11:50.223Z,421.88
2018-05-07T05:12:50.177Z,427.50
2018-05-07T05:13:50.139Z,433.13
2018-05-07T05:14:50.103Z,438.75
2018-05-07T05:15:50.059Z,444.38
2018-05-07T05:16:50.099Z,450.00
2018-05-07T05:17:49.986Z,455.63
2018-05-07T05:18:49.946Z,461.25
2018-05-07T05:19:49.918Z,461.25
2018-05-07T05:20:49.875Z,466.88
2018-05-07T05:21:49.868Z,472.50
2018-05-07T05:22:49.811Z,478.13
2018-05-07T05:23:49.761Z,483.75
2018-05-07T05:24:49.731Z,489.38
2018-05-07T05:25:49.702Z,495.00
2018-05-07T05:26:49.696Z,500.63
2018-05-07T05:27:49.625Z,500.63
2018-05-07T05:28:49.609Z,506.25
2018-05-07T05:29:49.558Z,511.88
2018-05-07T05:30:49.518Z,517.50
2018-05-07T05:31:49.492Z,523.13
2018-05-07T05:32:49.475Z,523.13
2018-05-07T05:33:49.417Z,534.38
2018-05-07T05:34:49.387Z,540.00
2018-05-07T05:35:49.342Z,540.00
2018-05-07T05:36:49.315Z,540.00
2018-05-07T05:37:49.369Z,545.63
2018-05-07T05:38:49.306Z,551.25
2018-05-07T05:39:49.217Z,551.25
2018-05-07T05:40:49.182Z,556.88
2018-05-07T05:41:49.144Z,562.50
2018-05-07T05:42:49.136Z,568.13
2018-05-07T05:43:49.142Z,568.13
2018-05-07T05:44:49.041Z,573.75
2018-05-07T05:45:49.016Z,579.38
2018-05-07T05:46:48.979Z,585.00
2018-05-07T05:47:48.937Z,590.63
2018-05-07T05:48:48.934Z,601.88
2018-05-07T05:49:48.873Z,601.88
2018-05-07T05:50:48.843Z,607.50
2018-05-07T05:51:49.011Z,613.13
2018-05-07T05:52:48.775Z,618.75
2018-05-07T05:53:48.765Z,624.38
2018-05-07T05:54:48.739Z,624.38
2018-05-07T05:55:48.669Z,635.63
2018-05-07T05:56:48.645Z,641.25
2018-05-07T05:57:48.633Z,641.25
2018-05-07T05:58:48.729Z,646.88
2018-05-07T05:59:48.545Z,652.50
2018-05-07T06:00:48.509Z,658.13
2018-05-07T06:01:48.479Z,663.75
2018-05-07T06:02:48.441Z,669.38
2018-05-07T06:03:48.530Z,669.38
2018-05-07T06:04:48.383Z,675.00
2018-05-07T06:05:48.346Z,680.63
2018-05-07T06:06:48.309Z,680.63
2018-05-07T06:07:48.298Z,686.25
2018-05-07T06:08:48.280Z,691.88
2018-05-07T06:09:48.218Z,708.75
2018-05-07T06:10:48.191Z,703.13
2018-05-07T06:11:48.172Z,708.75
2018-05-07T06:12:48.122Z,714.38
2018-05-07T06:13:48.113Z,720.00
2018-05-07T06:14:48.173Z,725.63
2018-05-07T06:15:48.028Z,736.88
2018-05-07T06:16:47.995Z,742.50
2018-05-07T06:17:47.964Z,748.13
2018-05-07T06:18:47.950Z,759.38
2018-05-07T06:19:47.920Z,765.00
2018-05-07T06:20:47.867Z,776.25
2018-05-07T06:21:47.838Z,781.88
2018-05-07T06:22:47.842Z,793.13
2018-05-07T06:23:47.891Z,804.38
2018-05-07T06:24:47.772Z,810.00
2018-05-07T06:25:47.706Z,815.63
2018-05-07T06:26:47.716Z,821.25
2018-05-07T06:27:47.657Z,826.88
2018-05-07T06:28:47.684Z,832.50
2018-05-07T06:29:47.590Z,838.13
2018-05-07T06:30:47.585Z,849.38
2018-05-07T06:31:47.534Z,849.38
2018-05-07T06:32:47.513Z,855.00
2018-05-07T06:33:47.463Z,855.00
2018-05-07T06:34:47.441Z,871.88
2018-05-07T06:35:47.388Z,877.50
2018-05-07T06:36:47.390Z,905.63
2018-05-07T06:37:47.393Z,928.13
2018-05-07T06:38:47.298Z,967.50
2018-05-07T06:39:47.380Z,1046.25
2018-05-07T06:40:47.266Z,1243.13
2018-05-07T06:41:47.261Z,1755.00
2018-05-07T06:42:47.183Z,3003.75
2018-05-07T06:43:47.145Z,3335.63
2018-05-07T06:44:47.113Z,2542.50
2018-05-07T06:45:47.132Z,2593.13
2018-05-07T06:46:47.069Z,2846.25
2018-05-07T06:47:47.118Z,2992.50
2018-05-07T06:48:47.018Z,2520.00
2018-05-07T06:49:47.199Z,2115.00
2018-05-07T06:50:46.983Z,2221.88
2018-05-07T06:51:46.914Z,2115.00
2018-05-07T06:52:46.881Z,1766.25
2018-05-07T06:53:46.856Z,1788.75
2018-05-07T06:54:46.823Z,1783.13
2018-05-07T06:55:46.781Z,1620.00
2018-05-07T06:56:46.781Z,1603.13
2018-05-07T06:57:46.736Z,1524.38
2018-05-07T06:58:46.723Z,1451.25
2018-05-07T06:59:46.668Z,1361.25
2018-05-07T07:00:46.657Z,1237.50
2018-05-07T07:01:46.600Z,1147.50
2018-05-07T07:02:57.648Z,1158.75
2018-05-07T07:03:46.539Z,1186.88
2018-05-07T07:04:46.515Z,1147.50
2018-05-07T07:05:46.514Z,1113.75
2018-05-07T07:06:46.480Z,1125.00
2018-05-07T07:07:46.508Z,1136.25
2018-05-07T07:08:46.417Z,1119.38
2018-05-07T07:09:46.368Z,1085.63
2018-05-07T07:10:46.367Z,1063.13
2018-05-07T07:11:46.334Z,1057.50
2018-05-07T07:12:46.277Z,1080.00
2018-05-07T07:13:46.236Z,1063.13
2018-05-07T07:14:46.204Z,1040.63
2018-05-07T07:15:46.217Z,1035.00
2018-05-07T07:16:46.194Z,1035.00
2018-05-07T07:17:46.105Z,1029.38
2018-05-07T07:18:46.090Z,1029.38
2018-05-07T07:19:46.059Z,1029.38
2018-05-07T07:20:46.019Z,1035.00
2018-05-07T07:21:46.117Z,1040.63
2018-05-07T07:22:45.977Z,1046.25
2018-05-07T07:23:45.946Z,1040.63
2018-05-07T07:24:45.919Z,1051.88
2018-05-07T07:25:45.892Z,1046.25
2018-05-07T07:26:45.845Z,1046.25
2018-05-07T07:27:45.843Z,1046.25
2018-05-07T07:28:45.791Z,1051.88
2018-05-07T07:29:45.767Z,1057.50
2018-05-07T07:30:45.733Z,1068.75
2018-05-07T07:31:45.701Z,1074.38
2018-05-07T07:32:45.688Z,1074.38
2018-05-07T07:33:45.666Z,1074.38
2018-05-07T07:34:45.611Z,1068.75
2018-05-07T07:35:45.589Z,1074.38
2018-05-07T07:36:45.570Z,1080.00
2018-05-07T07:37:45.548Z,1080.00
2018-05-07T07:38:45.500Z,1085.63
2018-05-07T07:39:45.466Z,1091.25
2018-05-07T07:40:45.429Z,1091.25
2018-05-07T07:41:45.424Z,1091.25
2018-05-07T07:42:45.405Z,1096.88
2018-05-07T07:43:45.402Z,1108.13
2018-05-07T07:44:45.320Z,1113.75
2018-05-07T07:45:45.288Z,1125.00
2018-05-07T07:46:45.259Z,1119.38
2018-05-07T07:47:45.259Z,1125.00
2018-05-07T07:48:45.207Z,1136.25
2018-05-07T07:49:45.169Z,1147.50
2018-05-07T07:50:45.149Z,1141.88
2018-05-07T07:51:45.118Z,1136.25
2018-05-07T07:52:45.105Z,1141.88
2018-05-07T07:53:45.112Z,1147.50
2018-05-07T07:54:45.033Z,1153.13
2018-05-07T07:55:45.003Z,1153.13
2018-05-07T07:56:44.977Z,1147.50
2018-05-07T07:57:44.960Z,1141.88
2018-05-07T07:58:44.915Z,1141.88
2018-05-07T07:59:44.891Z,1141.88
2018-05-07T08:00:44.854Z,1147.50
2018-05-07T08:01:44.837Z,1164.38
2018-05-07T08:02:44.827Z,1153.13
2018-05-07T08:03:44.879Z,1158.75
2018-05-07T08:04:44.738Z,1158.75
2018-05-07T08:05:44.727Z,1170.00
2018-05-07T08:06:44.691Z,1170.00
2018-05-07T08:07:44.684Z,1175.63
2018-05-07T08:08:44.638Z,1181.25
2018-05-07T08:09:44.600Z,1186.88
2018-05-07T08:10:44.578Z,1186.88
2018-05-07T08:11:44.546Z,1181.25
2018-05-07T08:12:44.537Z,1192.50
2018-05-07T08:13:44.499Z,1203.75
2018-05-07T08:14:44.466Z,1209.38
2018-05-07T08:15:44.442Z,1198.13
2018-05-07T08:16:44.436Z,1203.75
2018-05-07T08:17:44.408Z,1215.00
2018-05-07T08:18:44.352Z,1231.88
2018-05-07T08:19:44.329Z,1276.88
2018-05-07T08:20:44.310Z,1299.38
2018-05-07T08:21:44.577Z,1310.63
2018-05-07T08:22:44.392Z,1321.88
2018-05-07T08:23:44.664Z,1355.63
2018-05-07T08:24:44.358Z,1383.75
2018-05-07T08:25:44.294Z,1411.88
2018-05-07T08:26:44.204Z,1434.38
2018-05-07T08:27:44.113Z,1485.00
2018-05-07T08:28:44.108Z,1546.88
2018-05-07T08:29:44.064Z,1648.13
2018-05-07T08:30:44.051Z,1805.63
2018-05-07T08:31:44.032Z,1929.38
2018-05-07T08:32:44.001Z,2086.88
2018-05-07T08:33:43.958Z,2840.63
2018-05-07T08:34:43.931Z,3729.38
2018-05-07T08:35:54.192Z,4005.00
2018-05-07T08:36:43.896Z,4258.13
2018-05-07T08:37:43.845Z,4370.63
2018-05-07T08:38:43.823Z,4258.13
2018-05-07T08:39:43.782Z,4291.88
2018-05-07T08:40:43.761Z,4331.25
2018-05-07T08:41:43.758Z,4280.63
2018-05-07T08:42:43.704Z,4173.75
2018-05-07T08:43:43.690Z,4117.50
2018-05-07T08:44:43.660Z,4370.63
2018-05-07T08:45:43.630Z,4466.25
2018-05-07T08:46:43.641Z,4578.75
2018-05-07T08:47:43.576Z,4685.63
2018-05-07T08:48:43.552Z,4561.88
2018-05-07T08:49:43.530Z,4426.88
2018-05-07T08:50:43.508Z,4331.25
2018-05-07T08:51:43.507Z,4516.88
2018-05-07T08:52:43.514Z,4657.50
2018-05-07T08:53:43.426Z,4331.25
2018-05-07T08:54:43.391Z,4348.13
2018-05-07T08:55:43.408Z,4381.88
2018-05-07T08:56:43.347Z,4320.00
2018-05-07T08:57:43.320Z,4353.75
2018-05-07T08:58:43.296Z,4342.50
2018-05-07T08:59:43.263Z,4162.50
2018-05-07T09:00:43.257Z,4134.38
2018-05-07T09:01:43.211Z,4398.75
2018-05-07T09:02:43.182Z,4432.50
2018-05-07T09:03:43.165Z,4359.38
2018-05-07T09:04:43.142Z,4387.50
2018-05-07T09:05:43.129Z,4410.00
2018-05-07T09:06:43.085Z,4331.25
2018-05-07T09:07:43.064Z,4033.13
2018-05-07T09:08:43.036Z,4224.38
2018-05-07T09:09:43.012Z,4466.25
2018-05-07T09:10:43.013Z,4095.00
2018-05-07T09:11:42.963Z,3352.50
2018-05-07T09:12:42.933Z,3256.88
2018-05-07T09:13:43.003Z,4123.13
2018-05-07T09:14:42.873Z,4404.38
2018-05-07T09:15:42.886Z,4393.13
2018-05-07T09:16:42.834Z,4623.75
2018-05-07T09:17:42.810Z,4528.13
2018-05-07T09:18:42.779Z,4471.88
2018-05-07T09:19:42.752Z,4359.38
2018-05-07T09:20:42.752Z,3898.13
2018-05-07T09:21:42.707Z,4038.75
2018-05-07T09:22:42.694Z,4415.63
2018-05-07T09:23:42.643Z,4443.75
2018-05-07T09:24:42.674Z,4443.75
2018-05-07T09:25:42.653Z,4516.88
2018-05-07T09:26:42.564Z,4578.75
2018-05-07T09:27:42.563Z,4308.75
2018-05-07T09:28:42.530Z,4381.88
2018-05-07T09:29:42.520Z,4438.13
2018-05-07T09:30:42.479Z,4303.13
2018-05-07T09:31:42.485Z,4258.13
2018-05-07T09:32:42.428Z,4342.50
2018-05-07T09:33:42.399Z,4269.38
2018-05-07T09:34:42.394Z,4050.00
2018-05-07T09:35:42.368Z,4128.75
2018-05-07T09:36:42.338Z,4196.25
2018-05-07T09:37:42.305Z,4387.50
2018-05-07T09:38:42.274Z,4365.00
2018-05-07T09:39:42.289Z,4297.50
2018-05-07T09:40:42.222Z,4156.88
2018-05-07T09:41:42.200Z,4308.75
2018-05-07T09:42:42.180Z,4224.38
2018-05-07T09:43:42.145Z,4218.75
2018-05-07T09:44:42.156Z,4348.13
2018-05-07T09:45:42.101Z,4336.88
2018-05-07T09:46:42.074Z,4241.25
2018-05-07T09:47:52.317Z,4263.75
2018-05-07T09:48:42.038Z,4263.75
2018-05-07T09:49:42.022Z,4117.50
2018-05-07T09:50:42.007Z,4128.75
2018-05-07T09:51:41.970Z,4303.13
2018-05-07T09:52:41.937Z,4387.50
2018-05-07T09:53:41.913Z,4275.00
2018-05-07T09:54:41.907Z,4168.13
2018-05-07T09:55:41.867Z,4246.88
2018-05-07T09:56:41.843Z,4241.25
2018-05-07T09:57:41.812Z,4016.25
2018-05-07T09:58:41.807Z,3965.63
2018-05-07T09:59:41.783Z,3943.13
2018-05-07T10:00:41.737Z,4005.00
2018-05-07T10:01:41.703Z,4106.25
2018-05-07T10:02:41.676Z,4196.25
2018-05-07T10:03:41.670Z,4134.38
2018-05-07T10:04:41.669Z,4072.50
2018-05-07T10:05:41.622Z,4134.38
2018-05-07T10:06:41.589Z,4291.88
2018-05-07T10:07:41.574Z,4286.25
2018-05-07T10:08:41.535Z,4230.00
2018-05-07T10:09:41.528Z,4235.63
2018-05-07T10:10:41.524Z,4128.75
2018-05-07T10:11:52.411Z,4010.63
2018-05-07T10:12:41.433Z,4252.50
2018-05-07T10:13:41.433Z,4404.38
2018-05-07T10:14:41.390Z,4325.63
2018-05-07T10:15:41.401Z,4331.25
2018-05-07T10:16:41.369Z,4359.38
2018-05-07T10:17:41.322Z,4297.50
2018-05-07T10:18:41.290Z,4246.88
2018-05-07T10:19:41.267Z,4207.50
2018-05-07T10:20:41.241Z,4162.50
2018-05-07T10:21:41.270Z,4201.88
2018-05-07T10:22:41.191Z,4275.00
2018-05-07T10:23:41.169Z,4275.00
2018-05-07T10:24:41.141Z,4066.88
2018-05-07T10:25:41.112Z,4151.25
2018-05-07T10:26:41.102Z,4263.75
2018-05-07T10:27:41.110Z,4286.25
2018-05-07T10:28:41.050Z,4308.75
2018-05-07T10:29:41.033Z,4308.75
2018-05-07T10:30:40.997Z,4117.50
2018-05-07T10:31:40.971Z,4010.63
2018-05-07T10:32:40.940Z,4246.88
2018-05-07T10:33:40.950Z,4303.13
2018-05-07T10:34:40.899Z,4201.88
2018-05-07T10:35:40.892Z,4275.00
2018-05-07T10:36:40.869Z,4089.38
2018-05-07T10:37:40.853Z,4145.63
2018-05-07T10:38:40.812Z,4269.38
2018-05-07T10:39:40.789Z,4173.75
2018-05-07T10:40:40.769Z,4258.13
2018-05-07T10:41:40.744Z,4196.25
2018-05-07T10:42:40.840Z,4291.88
2018-05-07T10:43:40.691Z,4128.75
2018-05-07T10:44:40.663Z,3841.88
2018-05-07T10:45:40.635Z,4010.63
2018-05-07T10:46:40.633Z,4162.50
2018-05-07T10:47:40.602Z,4269.38
2018-05-07T10:48:40.602Z,4269.38
2018-05-07T10:49:40.554Z,4297.50
2018-05-07T10:50:40.527Z,4421.25
2018-05-07T10:51:40.501Z,4314.38
2018-05-07T10:52:40.482Z,4156.88
2018-05-07T10:53:40.481Z,4016.25
2018-05-07T10:54:40.432Z,4218.75
2018-05-07T10:55:40.412Z,4466.25
2018-05-07T10:56:40.384Z,4342.50
2018-05-07T10:57:40.362Z,4207.50
2018-05-07T10:58:40.367Z,4168.13
2018-05-07T10:59:40.315Z,4100.63
2018-05-07T11:00:40.314Z,4123.13
2018-05-07T11:01:40.351Z,4432.50
2018-05-07T11:02:40.268Z,4460.63
2018-05-07T11:03:40.251Z,4280.63
2018-05-07T11:04:40.193Z,4269.38
2018-05-07T11:05:40.171Z,4168.13
2018-05-07T11:06:40.149Z,4213.13
2018-05-07T11:07:40.133Z,4190.63
2018-05-07T11:08:40.137Z,4061.25
2018-05-07T11:09:40.078Z,4128.75
2018-05-07T11:10:40.055Z,4173.75
2018-05-07T11:11:40.040Z,4061.25
2018-05-07T11:12:40.015Z,3993.75
2018-05-07T11:13:40.091Z,4005.00
2018-05-07T11:14:39.993Z,4123.13
2018-05-07T11:15:39.935Z,3971.25
2018-05-07T11:16:39.913Z,3808.13
2018-05-07T11:17:39.906Z,3976.88
2018-05-07T11:18:39.867Z,4443.75
2018-05-07T11:19:39.906Z,3796.88
2018-05-07T11:20:39.849Z,3577.50
2018-05-07T11:21:39.803Z,3751.88
2018-05-07T11:22:49.848Z,4117.50
2018-05-07T11:23:39.756Z,4471.88
2018-05-07T11:24:39.727Z,4050.00
2018-05-07T11:25:39.726Z,3825.00
2018-05-07T11:26:39.673Z,4021.88
2018-05-07T11:27:39.652Z,4044.38
2018-05-07T11:28:39.627Z,3971.25
2018-05-07T11:29:39.619Z,3988.13
2018-05-07T11:30:39.586Z,4123.13
2018-05-07T11:31:39.588Z,4140.00
2018-05-07T11:32:39.534Z,4111.88
2018-05-07T11:33:39.518Z,4134.38
2018-05-07T11:34:39.490Z,4151.25
2018-05-07T11:35:39.462Z,4128.75
2018-05-07T11:36:39.463Z,4117.50
2018-05-07T11:37:39.416Z,4156.88
2018-05-07T11:38:39.397Z,4117.50
2018-05-07T11:39:39.364Z,4128.75
2018-05-07T11:40:39.346Z,4123.13
2018-05-07T11:41:39.359Z,4072.50
2018-05-07T11:42:39.314Z,4021.88
2018-05-07T11:43:39.293Z,4095.00
2018-05-07T11:44:39.262Z,4201.88
2018-05-07T11:45:39.231Z,4168.13
2018-05-07T11:46:39.209Z,4162.50
2018-05-07T11:47:39.246Z,4117.50
2018-05-07T11:48:39.180Z,4083.75
2018-05-07T11:49:39.147Z,4095.00
2018-05-07T11:50:39.127Z,4072.50
2018-05-07T11:51:39.111Z,3982.50
2018-05-07T11:52:39.114Z,3993.75
2018-05-07T11:53:39.062Z,4027.50
2018-05-07T11:54:39.038Z,3954.38
2018-05-07T11:55:39.033Z,4033.13
2018-05-07T11:56:38.998Z,4111.88
2018-05-07T11:57:39.006Z,3954.38
2018-05-07T11:58:38.945Z,3808.13
2018-05-07T11:59:38.927Z,3785.63
2018-05-07T12:00:38.915Z,3993.75
2018-05-07T12:01:38.899Z,4089.38
2018-05-07T12:02:38.933Z,4055.63
2018-05-07T12:03:38.879Z,4055.63
2018-05-07T12:04:38.822Z,4033.13
2018-05-07T12:05:38.808Z,4072.50
2018-05-07T12:06:38.773Z,4111.88
2018-05-07T12:07:38.754Z,4106.25
2018-05-07T12:08:38.762Z,4190.63
2018-05-07T12:09:38.713Z,4213.13
2018-05-07T12:10:38.699Z,4151.25
2018-05-07T12:11:38.663Z,3903.75
2018-05-07T12:12:38.647Z,3875.63
2018-05-07T12:13:38.628Z,4010.63
2018-05-07T12:14:38.646Z,4213.13
2018-05-07T12:15:38.589Z,4055.63
2018-05-07T12:16:38.564Z,3808.13
2018-05-07T12:17:38.533Z,3960.00
2018-05-07T12:18:38.504Z,3965.63
2018-05-07T12:19:38.479Z,4016.25
2018-05-07T12:20:38.485Z,3892.50
2018-05-07T12:21:38.439Z,3931.88
2018-05-07T12:22:38.425Z,4123.13
2018-05-07T12:23:38.398Z,4117.50
2018-05-07T12:24:38.400Z,4021.88
2018-05-07T12:25:38.356Z,4072.50
2018-05-07T12:26:38.324Z,4106.25
2018-05-07T12:27:38.324Z,3993.75
2018-05-07T12:28:38.280Z,3943.13
2018-05-07T12:29:38.276Z,3948.75
2018-05-07T12:30:38.232Z,4027.50
2018-05-07T12:31:38.322Z,3898.13
2018-05-07T12:32:38.195Z,3858.75